sensor_id;sensor_type;location;lat;lon;timestamp;pressure;altitude;pressure_sealevel;temperature;humidity
65760;BME280;52496;51.082;5.066;2022-12-04T00:01:32;101608.75;;;0.96;100.00
65760;BME280;52496;51.082;5.066;2022-12-04T00:04:03;101595.78;;;0.93;100.00
65760;BME280;52496;51.082;5.066;2022-12-04T00:06:34;101599.47;;;0.90;100.00
65760;BME280;52496;51.082;5.066;2022-12-04T00:09:04;101602.22;;;0.88;100.00
65760;BME280;52496;51.082;5.066;2022-12-04T00:11:35;101609.38;;;0.86;100.00
65760;BME280;52496;51.082;5.066;2022-12-04T00:14:05;101606.72;;;0.86;100.00
65760;BME280;52496;51.082;5.066;2022-12-04T00:16:36;101601.47;;;0.86;100.00
65760;BME280;52496;51.082;5.066;2022-12-04T00:19:07;101596.19;;;0.86;100.00
65760;BME280;52496;51.082;5.066;2022-12-04T00:21:37;101600.50;;;0.87;100.00
65760;BME280;52496;51.082;5.066;2022-12-04T00:24:08;101598.72;;;0.88;100.00
65760;BME280;52496;51.082;5.066;2022-12-04T00:26:38;101605.69;;;0.89;100.00
65760;BME280;52496;51.082;5.066;2022-12-04T00:29:09;101604.72;;;0.90;100.00
65760;BME280;52496;51.082;5.066;2022-12-04T00:31:40;101602.09;;;0.90;100.00
65760;BME280;52496;51.082;5.066;2022-12-04T00:34:10;101597.66;;;0.90;100.00
65760;BME280;52496;51.082;5.066;2022-12-04T00:36:41;101598.50;;;0.91;100.00
65760;BME280;52496;51.082;5.066;2022-12-04T00:39:11;101594.09;;;0.91;100.00
65760;BME280;52496;51.082;5.066;2022-12-04T00:41:42;101595.88;;;0.91;100.00
65760;BME280;52496;51.082;5.066;2022-12-04T00:44:12;101599.38;;;0.91;100.00
65760;BME280;52496;51.082;5.066;2022-12-04T00:46:42;101606.31;;;0.93;100.00
65760;BME280;52496;51.082;5.066;2022-12-04T00:49:14;101595.78;;;0.93;100.00
65760;BME280;52496;51.082;5.066;2022-12-04T00:51:45;101602.72;;;0.94;100.00
65760;BME280;52496;51.082;5.066;2022-12-04T00:54:15;101600.84;;;0.96;100.00
65760;BME280;52496;51.082;5.066;2022-12-04T00:56:45;101592.00;;;0.97;100.00
65760;BME280;52496;51.082;5.066;2022-12-04T00:59:16;101605.06;;;0.98;100.00
65760;BME280;52496;51.082;5.066;2022-12-04T01:01:46;101597.88;;;1.00;100.00
65760;BME280;52496;51.082;5.066;2022-12-04T01:04:17;101583.88;;;1.00;100.00
65760;BME280;52496;51.082;5.066;2022-12-04T01:06:47;101587.25;;;1.02;100.00
65760;BME280;52496;51.082;5.066;2022-12-04T01:09:18;101590.53;;;1.05;100.00
65760;BME280;52496;51.082;5.066;2022-12-04T01:11:49;101590.66;;;1.04;100.00
65760;BME280;52496;51.082;5.066;2022-12-04T01:14:19;101595.72;;;1.07;100.00
65760;BME280;52496;51.082;5.066;2022-12-04T01:16:50;101592.94;;;1.08;100.00
65760;BME280;52496;51.082;5.066;2022-12-04T01:19:20;101597.25;;;1.09;100.00
65760;BME280;52496;51.082;5.066;2022-12-04T01:21:50;101599.81;;;1.11;100.00
65760;BME280;52496;51.082;5.066;2022-12-04T01:24:21;101599.81;;;1.11;100.00
65760;BME280;52496;51.082;5.066;2022-12-04T01:26:51;101598.00;;;1.11;100.00
65760;BME280;52496;51.082;5.066;2022-12-04T01:29:22;101589.06;;;1.14;100.00
65760;BME280;52496;51.082;5.066;2022-12-04T01:31:52;101589.06;;;1.14;100.00
65760;BME280;52496;51.082;5.066;2022-12-04T01:34:22;101589.06;;;1.14;100.00
65760;BME280;52496;51.082;5.066;2022-12-04T01:36:54;101588.84;;;1.17;100.00
65760;BME280;52496;51.082;5.066;2022-12-04T01:39:24;101584.41;;;1.18;100.00
65760;BME280;52496;51.082;5.066;2022-12-04T01:41:55;101586.09;;;1.19;100.00
65760;BME280;52496;51.082;5.066;2022-12-04T01:44:25;101582.63;;;1.18;100.00
65760;BME280;52496;51.082;5.066;2022-12-04T01:47:00;101589.69;;;1.18;100.00
65760;BME280;52496;51.082;5.066;2022-12-04T01:49:38;101583.59;;;1.17;100.00
65760;BME280;52496;51.082;5.066;2022-12-04T01:52:28;101590.53;;;1.18;100.00
65760;BME280;52496;51.082;5.066;2022-12-04T01:54:59;101574.50;;;1.21;100.00
65760;BME280;52496;51.082;5.066;2022-12-04T01:57:31;101582.41;;;1.21;100.00
65760;BME280;52496;51.082;5.066;2022-12-04T02:00:08;101572.63;;;1.23;100.00
65760;BME280;52496;51.082;5.066;2022-12-04T02:02:42;101579.56;;;1.24;100.00
65760;BME280;52496;51.082;5.066;2022-12-04T02:05:17;101581.28;;;1.25;100.00
65760;BME280;52496;51.082;5.066;2022-12-04T02:07:51;101578.63;;;1.25;100.00
65760;BME280;52496;51.082;5.066;2022-12-04T02:10:39;101574.28;;;1.24;100.00
65760;BME280;52496;51.082;5.066;2022-12-04T02:13:30;101578.72;;;1.24;100.00
65760;BME280;52496;51.082;5.066;2022-12-04T02:22:13;101577.88;;;1.23;100.00
65760;BME280;52496;51.082;5.066;2022-12-04T02:25:06;101583.16;;;1.23;100.00
65760;BME280;52496;51.082;5.066;2022-12-04T02:30:39;101569.88;;;1.25;100.00
65760;BME280;52496;51.082;5.066;2022-12-04T02:33:33;101573.44;;;1.24;100.00
65760;BME280;52496;51.082;5.066;2022-12-04T02:36:18;101573.38;;;1.25;100.00
65760;BME280;52496;51.082;5.066;2022-12-04T02:38:58;101566.28;;;1.26;100.00
65760;BME280;52496;51.082;5.066;2022-12-04T02:41:43;101567.13;;;1.26;100.00
65760;BME280;52496;51.082;5.066;2022-12-04T02:44:32;101568.81;;;1.27;100.00
65760;BME280;52496;51.082;5.066;2022-12-04T02:47:08;101563.53;;;1.27;100.00
65760;BME280;52496;51.082;5.066;2022-12-04T02:49:47;101563.53;;;1.27;100.00
65760;BME280;52496;51.082;5.066;2022-12-04T02:52:23;101560.91;;;1.27;100.00
65760;BME280;52496;51.082;5.066;2022-12-04T02:55:01;101567.97;;;1.27;100.00
65760;BME280;52496;51.082;5.066;2022-12-04T02:57:35;101560.91;;;1.27;100.00
65760;BME280;52496;51.082;5.066;2022-12-04T03:00:08;101558.28;;;1.27;100.00
65760;BME280;52496;51.082;5.066;2022-12-04T03:03:00;101563.53;;;1.27;100.00
65760;BME280;52496;51.082;5.066;2022-12-04T03:05:42;101561.88;;;1.26;100.00
65760;BME280;52496;51.082;5.066;2022-12-04T03:08:17;101562.69;;;1.27;100.00
65760;BME280;52496;51.082;5.066;2022-12-04T03:10:52;101567.13;;;1.26;100.00
65760;BME280;52496;51.082;5.066;2022-12-04T03:13:47;101562.69;;;1.27;100.00
65760;BME280;52496;51.082;5.066;2022-12-04T03:16:30;101563.53;;;1.27;100.00
65760;BME280;52496;51.082;5.066;2022-12-04T03:19:13;101556.47;;;1.28;100.00
65760;BME280;52496;51.082;5.066;2022-12-04T03:21:50;101558.19;;;1.29;100.00
65760;BME280;52496;51.082;5.066;2022-12-04T03:24:35;101559.22;;;1.26;100.00
65760;BME280;52496;51.082;5.066;2022-12-04T03:30:09;101561.97;;;1.25;100.00
65760;BME280;52496;51.082;5.066;2022-12-04T03:32:51;101557.66;;;1.24;100.00
65760;BME280;52496;51.082;5.066;2022-12-04T03:35:51;101560.19;;;1.25;100.00
65760;BME280;52496;51.082;5.066;2022-12-04T03:38:35;101559.22;;;1.26;100.00
65760;BME280;52496;51.082;5.066;2022-12-04T03:41:30;101547.72;;;1.27;100.00
65760;BME280;52496;51.082;5.066;2022-12-04T03:44:14;101555.63;;;1.27;100.00
65760;BME280;52496;51.082;5.066;2022-12-04T03:47:01;101563.53;;;1.27;100.00
65760;BME280;52496;51.082;5.066;2022-12-04T03:52:29;101553.00;;;1.27;100.00
65760;BME280;52496;51.082;5.066;2022-12-04T03:55:09;101556.59;;;1.26;100.00
65760;BME280;52496;51.082;5.066;2022-12-04T03:57:42;101561.88;;;1.26;100.00
65760;BME280;52496;51.082;5.066;2022-12-04T04:00:16;101555.75;;;1.26;100.00
65760;BME280;52496;51.082;5.066;2022-12-04T04:02:52;101552.16;;;1.27;100.00
65760;BME280;52496;51.082;5.066;2022-12-04T04:05:26;101556.59;;;1.26;100.00
65760;BME280;52496;51.082;5.066;2022-12-04T04:08:00;101561.88;;;1.26;100.00
65760;BME280;52496;51.082;5.066;2022-12-04T04:10:52;101556.59;;;1.26;100.00
65760;BME280;52496;51.082;5.066;2022-12-04T04:13:31;101559.31;;;1.25;100.00
65760;BME280;52496;51.082;5.066;2022-12-04T04:16:23;101554.91;;;1.25;100.00
65760;BME280;52496;51.082;5.066;2022-12-04T04:19:17;101561.88;;;1.26;100.00
65760;BME280;52496;51.082;5.066;2022-12-04T04:22:08;101548.69;;;1.26;100.00
65760;BME280;52496;51.082;5.066;2022-12-04T04:25:01;101554.91;;;1.25;100.00
65760;BME280;52496;51.082;5.066;2022-12-04T04:27:32;101554.06;;;1.25;100.00
65760;BME280;52496;51.082;5.066;2022-12-04T04:30:05;101558.47;;;1.24;100.00
65760;BME280;52496;51.082;5.066;2022-12-04T04:32:43;101558.47;;;1.24;100.00
65760;BME280;52496;51.082;5.066;2022-12-04T04:35:34;101551.31;;;1.26;100.00
65760;BME280;52496;51.082;5.066;2022-12-04T04:38:21;101548.69;;;1.26;100.00
65760;BME280;52496;51.082;5.066;2022-12-04T04:40:58;101547.00;;;1.25;100.00
65760;BME280;52496;51.082;5.066;2022-12-04T04:44:13;101550.56;;;1.24;100.00
65760;BME280;52496;51.082;5.066;2022-12-04T04:46:52;101558.47;;;1.24;100.00
65760;BME280;52496;51.082;5.066;2022-12-04T04:49:27;101552.16;;;1.27;100.00
65760;BME280;52496;51.082;5.066;2022-12-04T04:52:00;101558.94;;;1.31;100.00
65760;BME280;52496;51.082;5.066;2022-12-04T04:54:33;101550.16;;;1.30;100.00
65760;BME280;52496;51.082;5.066;2022-12-04T04:57:04;101556.38;;;1.29;100.00
65760;BME280;52496;51.082;5.066;2022-12-04T04:59:35;101557.22;;;1.30;100.00
65760;BME280;52496;51.082;5.066;2022-12-04T05:02:05;101552.91;;;1.29;100.00
65760;BME280;52496;51.082;5.066;2022-12-04T05:04:35;101551.94;;;1.30;100.00
65760;BME280;52496;51.082;5.066;2022-12-04T05:07:06;101555.41;;;1.30;100.00
65760;BME280;52496;51.082;5.066;2022-12-04T05:09:36;101556.38;;;1.29;100.00
65760;BME280;52496;51.082;5.066;2022-12-04T05:12:08;101553.84;;;1.28;100.00
65760;BME280;52496;51.082;5.066;2022-12-04T05:14:38;101545.09;;;1.27;100.00
65760;BME280;52496;51.082;5.066;2022-12-04T05:17:08;101555.75;;;1.26;100.00
65760;BME280;52496;51.082;5.066;2022-12-04T05:19:39;101550.56;;;1.24;100.00
65760;BME280;52496;51.082;5.066;2022-12-04T05:22:31;101556.81;;;1.23;100.00
65760;BME280;52496;51.082;5.066;2022-12-04T05:25:02;101551.53;;;1.23;100.00
65760;BME280;52496;51.082;5.066;2022-12-04T05:27:33;101544.38;;;1.25;100.00
65760;BME280;52496;51.082;5.066;2022-12-04T05:30:04;101547.94;;;1.24;100.00
65760;BME280;52496;51.082;5.066;2022-12-04T05:32:35;101540.78;;;1.26;100.00
65760;BME280;52496;51.082;5.066;2022-12-04T05:35:06;101540.78;;;1.26;100.00
65760;BME280;52496;51.082;5.066;2022-12-04T05:37:38;101545.31;;;1.24;100.00
65760;BME280;52496;51.082;5.066;2022-12-04T05:40:09;101534.91;;;1.23;100.00
65760;BME280;52496;51.082;5.066;2022-12-04T05:42:40;101537.63;;;1.21;100.00
65760;BME280;52496;51.082;5.066;2022-12-04T05:45:10;101537.63;;;1.21;100.00
65760;BME280;52496;51.082;5.066;2022-12-04T05:47:42;101538.47;;;1.22;100.00
65760;BME280;52496;51.082;5.066;2022-12-04T05:50:13;101532.34;;;1.21;100.00
65760;BME280;52496;51.082;5.066;2022-12-04T05:52:43;101540.38;;;1.20;100.00
65760;BME280;52496;51.082;5.066;2022-12-04T05:55:14;101531.50;;;1.21;100.00
65760;BME280;52496;51.082;5.066;2022-12-04T05:57:44;101536.91;;;1.19;100.00
65760;BME280;52496;51.082;5.066;2022-12-04T06:00:15;101526.38;;;1.19;100.00
65760;BME280;52496;51.082;5.066;2022-12-04T06:02:47;101533.31;;;1.20;100.00
65760;BME280;52496;51.082;5.066;2022-12-04T06:05:17;101534.97;;;1.21;100.00
65760;BME280;52496;51.082;5.066;2022-12-04T06:07:48;101535.09;;;1.20;100.00
65760;BME280;52496;51.082;5.066;2022-12-04T06:10:18;101539.53;;;1.19;100.00
65760;BME280;52496;51.082;5.066;2022-12-04T06:12:49;101536.91;;;1.19;100.00
65760;BME280;52496;51.082;5.066;2022-12-04T06:15:19;101534.28;;;1.19;100.00
65760;BME280;52496;51.082;5.066;2022-12-04T06:17:50;101534.28;;;1.19;100.00
65760;BME280;52496;51.082;5.066;2022-12-04T06:20:20;101540.38;;;1.20;100.00
65760;BME280;52496;51.082;5.066;2022-12-04T06:22:51;101546.47;;;1.20;100.00
65760;BME280;52496;51.082;5.066;2022-12-04T06:25:21;101542.19;;;1.19;100.00
65760;BME280;52496;51.082;5.066;2022-12-04T06:27:52;101545.53;;;1.21;100.00
65760;BME280;52496;51.082;5.066;2022-12-04T06:30:22;101540.16;;;1.23;100.00
65760;BME280;52496;51.082;5.066;2022-12-04T06:32:53;101549.88;;;1.22;100.00
65760;BME280;52496;51.082;5.066;2022-12-04T06:35:24;101553.44;;;1.21;100.00
65760;BME280;52496;51.082;5.066;2022-12-04T06:37:54;101548.91;;;1.23;100.00
65760;BME280;52496;51.082;5.066;2022-12-04T06:40:24;101550.78;;;1.21;100.00
65760;BME280;52496;51.082;5.066;2022-12-04T06:42:55;101558.59;;;1.23;100.00
65760;BME280;52496;51.082;5.066;2022-12-04T06:45:26;101559.53;;;1.22;100.00
65760;BME280;52496;51.082;5.066;2022-12-04T06:47:57;101555.13;;;1.22;100.00
65760;BME280;52496;51.082;5.066;2022-12-04T06:50:28;101560.41;;;1.22;100.00
65760;BME280;52496;51.082;5.066;2022-12-04T06:52:58;101555.13;;;1.22;100.00
65760;BME280;52496;51.082;5.066;2022-12-04T06:55:29;101556.06;;;1.21;100.00
65760;BME280;52496;51.082;5.066;2022-12-04T06:57:59;101564.81;;;1.22;100.00
65760;BME280;52496;51.082;5.066;2022-12-04T07:00:30;101552.50;;;1.22;100.00
65760;BME280;52496;51.082;5.066;2022-12-04T07:03:00;101551.53;;;1.23;100.00
65760;BME280;52496;51.082;5.066;2022-12-04T07:05:31;101554.06;;;1.25;100.00
65760;BME280;52496;51.082;5.066;2022-12-04T07:08:02;101560.28;;;1.24;100.00
65760;BME280;52496;51.082;5.066;2022-12-04T07:10:37;101553.34;;;1.23;100.00
65760;BME280;52496;51.082;5.066;2022-12-04T07:13:08;101558.59;;;1.23;100.00
65760;BME280;52496;51.082;5.066;2022-12-04T07:15:39;101561.13;;;1.24;100.00
65760;BME280;52496;51.082;5.066;2022-12-04T07:18:09;101567.34;;;1.23;100.00
65760;BME280;52496;51.082;5.066;2022-12-04T07:20:40;101568.31;;;1.22;100.00
65760;BME280;52496;51.082;5.066;2022-12-04T07:23:10;101573.44;;;1.24;100.00
65760;BME280;52496;51.082;5.066;2022-12-04T07:25:41;101571.66;;;1.24;100.00
65760;BME280;52496;51.082;5.066;2022-12-04T07:28:11;101569.03;;;1.24;100.00
65760;BME280;52496;51.082;5.066;2022-12-04T07:30:42;101572.50;;;1.25;100.00
65760;BME280;52496;51.082;5.066;2022-12-04T07:33:12;101577.56;;;1.28;100.00
65760;BME280;52496;51.082;5.066;2022-12-04T07:35:43;101568.81;;;1.27;100.00
65760;BME280;52496;51.082;5.066;2022-12-04T07:38:13;101574.91;;;1.28;100.00
65760;BME280;52496;51.082;5.066;2022-12-04T07:40:44;101575.03;;;1.26;100.00
65760;BME280;52496;51.082;5.066;2022-12-04T07:43:14;101580.09;;;1.29;100.00
65760;BME280;52496;51.082;5.066;2022-12-04T07:45:45;101573.16;;;1.28;100.00
65760;BME280;52496;51.082;5.066;2022-12-04T07:48:16;101581.91;;;1.29;100.00
65760;BME280;52496;51.082;5.066;2022-12-04T07:50:47;101577.47;;;1.29;100.00
65760;BME280;52496;51.082;5.066;2022-12-04T07:53:17;101584.41;;;1.30;100.00
65760;BME280;52496;51.082;5.066;2022-12-04T07:55:51;101587.78;;;1.32;100.00
65760;BME280;52496;51.082;5.066;2022-12-04T07:58:21;101599.91;;;1.35;100.00
65760;BME280;52496;51.082;5.066;2022-12-04T08:00:52;101594.53;;;1.36;100.00
65760;BME280;52496;51.082;5.066;2022-12-04T08:03:22;101594.31;;;1.40;100.00
65760;BME280;52496;51.082;5.066;2022-12-04T08:05:54;101594.22;;;1.41;100.00
65760;BME280;52496;51.082;5.066;2022-12-04T08:08:28;101593.25;;;1.42;100.00
65760;BME280;52496;51.082;5.066;2022-12-04T08:10:59;101587.16;;;1.42;100.00
65760;BME280;52496;51.082;5.066;2022-12-04T08:13:30;101589.69;;;1.43;100.00
65760;BME280;52496;51.082;5.066;2022-12-04T08:16:02;101592.22;;;1.45;100.00
65760;BME280;52496;51.082;5.066;2022-12-04T08:18:33;101583.34;;;1.46;100.00
65760;BME280;52496;51.082;5.066;2022-12-04T08:21:09;101593.66;;;1.49;100.00
65760;BME280;52496;51.082;5.066;2022-12-04T08:23:42;101590.72;;;1.53;100.00
65760;BME280;52496;51.082;5.066;2022-12-04T08:26:13;101590.38;;;1.58;100.00
65760;BME280;52496;51.082;5.066;2022-12-04T08:28:44;101588.63;;;1.58;100.00
65760;BME280;52496;51.082;5.066;2022-12-04T08:31:17;101601.69;;;1.60;100.00
65760;BME280;52496;51.082;5.066;2022-12-04T08:33:49;101584.91;;;1.61;100.00
65760;BME280;52496;51.082;5.066;2022-12-04T08:36:20;101583.97;;;1.62;100.00
65760;BME280;52496;51.082;5.066;2022-12-04T08:38:51;101584.81;;;1.63;100.00
65760;BME280;52496;51.082;5.066;2022-12-04T08:41:24;101595.13;;;1.66;100.00
65760;BME280;52496;51.082;5.066;2022-12-04T08:43:55;101589.66;;;1.69;100.00
65760;BME280;52496;51.082;5.066;2022-12-04T08:46:27;101577.09;;;1.72;100.00
65760;BME280;52496;51.082;5.066;2022-12-04T08:48:58;101577.81;;;1.74;100.00
65760;BME280;52496;51.082;5.066;2022-12-04T08:51:30;101584.69;;;1.77;100.00
65760;BME280;52496;51.082;5.066;2022-12-04T08:54:04;101582.88;;;1.77;100.00
65760;BME280;52496;51.082;5.066;2022-12-04T08:56:35;101590.78;;;1.77;100.00
65760;BME280;52496;51.082;5.066;2022-12-04T08:59:14;101594.28;;;1.78;100.00
65760;BME280;52496;51.082;5.066;2022-12-04T09:01:44;101588.88;;;1.79;100.00
65760;BME280;52496;51.082;5.066;2022-12-04T09:04:14;101586.97;;;1.81;100.00
65760;BME280;52496;51.082;5.066;2022-12-04T09:06:45;101588.66;;;1.82;100.00
65760;BME280;52496;51.082;5.066;2022-12-04T09:09:15;101591.28;;;1.82;100.00
65760;BME280;52496;51.082;5.066;2022-12-04T09:11:47;101596.34;;;1.86;100.00
65760;BME280;52496;51.082;5.066;2022-12-04T09:14:17;101588.34;;;1.87;100.00
65760;BME280;52496;51.082;5.066;2022-12-04T09:16:48;101588.97;;;1.91;100.00
65760;BME280;52496;51.082;5.066;2022-12-04T09:19:19;101595.06;;;1.91;100.00
65760;BME280;52496;51.082;5.066;2022-12-04T09:21:50;101593.41;;;1.90;100.00
65760;BME280;52496;51.082;5.066;2022-12-04T09:24:20;101603.09;;;1.90;100.00
65760;BME280;52496;51.082;5.066;2022-12-04T09:26:51;101595.69;;;1.95;100.00
65760;BME280;52496;51.082;5.066;2022-12-04T09:29:21;101596.44;;;1.97;100.00
65760;BME280;52496;51.082;5.066;2022-12-04T09:31:52;101590.94;;;2.00;100.00
65760;BME280;52496;51.082;5.066;2022-12-04T09:34:22;101592.50;;;2.02;100.00
65760;BME280;52496;51.082;5.066;2022-12-04T09:36:53;101588.06;;;2.03;100.00
65760;BME280;52496;51.082;5.066;2022-12-04T09:39:23;101585.44;;;2.03;100.00
65760;BME280;52496;51.082;5.066;2022-12-04T09:45:16;101596.72;;;2.05;100.00
65760;BME280;52496;51.082;5.066;2022-12-04T09:47:55;101601.19;;;2.04;100.00
65760;BME280;52496;51.082;5.066;2022-12-04T09:50:32;101602.75;;;2.07;100.00
65760;BME280;52496;51.082;5.066;2022-12-04T09:53:10;101605.38;;;2.07;100.00
65760;BME280;52496;51.082;5.066;2022-12-04T09:55:53;101607.06;;;2.08;100.00
65760;BME280;52496;51.082;5.066;2022-12-04T09:58:35;101605.16;;;2.10;100.00
65760;BME280;52496;51.082;5.066;2022-12-04T10:01:20;101594.16;;;2.16;100.00
65760;BME280;52496;51.082;5.066;2022-12-04T10:03:53;101598.13;;;2.22;100.00
65760;BME280;52496;51.082;5.066;2022-12-04T10:06:35;101593.38;;;2.27;100.00
65760;BME280;52496;51.082;5.066;2022-12-04T10:09:18;101599.16;;;2.32;100.00
65760;BME280;52496;51.082;5.066;2022-12-04T10:14:44;101597.00;;;2.37;100.00
65760;BME280;52496;51.082;5.066;2022-12-04T10:17:30;101603.78;;;2.41;100.00
65760;BME280;52496;51.082;5.066;2022-12-04T10:20:25;101599.44;;;2.40;100.00
65760;BME280;52496;51.082;5.066;2022-12-04T10:23:21;101612.63;;;2.40;99.36
65760;BME280;52496;51.082;5.066;2022-12-04T10:25:54;101612.00;;;2.37;99.68
65760;BME280;52496;51.082;5.066;2022-12-04T10:28:35;101612.75;;;2.39;99.72
65760;BME280;52496;51.082;5.066;2022-12-04T10:31:13;101613.50;;;2.41;99.36
65760;BME280;52496;51.082;5.066;2022-12-04T10:34:13;101600.06;;;2.44;99.43
65760;BME280;52496;51.082;5.066;2022-12-04T10:36:52;101595.50;;;2.46;96.35
65760;BME280;52496;51.082;5.066;2022-12-04T10:39:38;101603.41;;;2.46;96.55
65760;BME280;52496;51.082;5.066;2022-12-04T10:42:22;101605.84;;;2.49;96.63
65760;BME280;52496;51.082;5.066;2022-12-04T10:44:55;101596.84;;;2.51;93.90
65760;BME280;52496;51.082;5.066;2022-12-04T10:47:26;101595.78;;;2.54;95.24
65760;BME280;52496;51.082;5.066;2022-12-04T10:50:00;101584.25;;;2.55;94.27
65760;BME280;52496;51.082;5.066;2022-12-04T10:52:31;101586.19;;;2.53;94.30
65760;BME280;52496;51.082;5.066;2022-12-04T10:55:02;101593.25;;;2.52;93.52
65760;BME280;52496;51.082;5.066;2022-12-04T10:57:38;101589.75;;;2.52;94.15
65760;BME280;52496;51.082;5.066;2022-12-04T11:00:22;101591.25;;;2.56;94.15
65760;BME280;52496;51.082;5.066;2022-12-04T11:02:55;101589.53;;;2.55;93.54
65760;BME280;52496;51.082;5.066;2022-12-04T11:05:31;101593.16;;;2.54;93.10
65760;BME280;52496;51.082;5.066;2022-12-04T11:08:03;101580.78;;;2.55;94.20
65760;BME280;52496;51.082;5.066;2022-12-04T11:10:38;101582.88;;;2.62;94.73
65760;BME280;52496;51.082;5.066;2022-12-04T11:15:56;101597.75;;;2.63;93.86
65760;BME280;52496;51.082;5.066;2022-12-04T11:18:45;101581.91;;;2.63;93.44
65760;BME280;52496;51.082;5.066;2022-12-04T11:21:22;101583.31;;;2.56;93.88
65760;BME280;52496;51.082;5.066;2022-12-04T11:23:53;101589.53;;;2.55;94.05
65760;BME280;52496;51.082;5.066;2022-12-04T11:26:31;101581.13;;;2.50;94.38
65760;BME280;52496;51.082;5.066;2022-12-04T11:29:03;101584.63;;;2.50;94.92
65760;BME280;52496;51.082;5.066;2022-12-04T11:31:35;101581.59;;;2.44;93.86
65760;BME280;52496;51.082;5.066;2022-12-04T11:34:16;101583.50;;;2.42;95.04
65760;BME280;52496;51.082;5.066;2022-12-04T11:36:53;101580.72;;;2.43;95.63
65760;BME280;52496;51.082;5.066;2022-12-04T11:39:35;101578.22;;;2.42;94.35
65760;BME280;52496;51.082;5.066;2022-12-04T11:45:18;101567.50;;;2.32;94.72
65760;BME280;52496;51.082;5.066;2022-12-04T11:47:58;101569.41;;;2.30;95.24
65760;BME280;52496;51.082;5.066;2022-12-04T11:50:30;101573.22;;;2.26;95.30
65760;BME280;52496;51.082;5.066;2022-12-04T11:53:25;101563.72;;;2.23;95.42
65760;BME280;52496;51.082;5.066;2022-12-04T12:13:35;101536.94;;;2.17;96.74
65760;BME280;52496;51.082;5.066;2022-12-04T12:25:13;101516.44;;;2.20;96.79
65760;BME280;52496;51.082;5.066;2022-12-04T12:28:12;101522.56;;;2.21;96.59
65760;BME280;52496;51.082;5.066;2022-12-04T12:33:53;101529.75;;;2.19;96.19
65760;BME280;52496;51.082;5.066;2022-12-04T12:36:30;101532.50;;;2.17;95.65
65760;BME280;52496;51.082;5.066;2022-12-04T12:39:13;101534.19;;;2.18;96.17
65760;BME280;52496;51.082;5.066;2022-12-04T12:41:52;101530.84;;;2.16;94.71
65760;BME280;52496;51.082;5.066;2022-12-04T12:44:31;101528.44;;;2.13;95.48
65760;BME280;52496;51.082;5.066;2022-12-04T12:47:16;101533.34;;;2.18;96.03
65760;BME280;52496;51.082;5.066;2022-12-04T12:49:58;101523.63;;;2.18;96.65
65760;BME280;52496;51.082;5.066;2022-12-04T12:55:23;101525.56;;;2.16;96.56
65760;BME280;52496;51.082;5.066;2022-12-04T12:58:08;101518.81;;;2.12;96.57
65760;BME280;52496;51.082;5.066;2022-12-04T13:00:47;101520.00;;;2.08;96.93
65760;BME280;52496;51.082;5.066;2022-12-04T13:06:00;101524.53;;;2.06;96.37
65760;BME280;52496;51.082;5.066;2022-12-04T13:08:38;101533.63;;;2.02;96.32
65760;BME280;52496;51.082;5.066;2022-12-04T13:11:10;101528.38;;;2.02;95.89
65760;BME280;52496;51.082;5.066;2022-12-04T13:13:50;101525.81;;;2.00;96.34
65760;BME280;52496;51.082;5.066;2022-12-04T13:16:30;101523.19;;;2.00;96.54
65760;BME280;52496;51.082;5.066;2022-12-04T13:22:15;101535.88;;;1.95;96.59
65760;BME280;52496;51.082;5.066;2022-12-04T13:24:53;101529.97;;;1.92;95.58
65760;BME280;52496;51.082;5.066;2022-12-04T13:30:24;101526.44;;;1.80;96.58
65760;BME280;52496;51.082;5.066;2022-12-04T13:41:37;101524.47;;;1.71;97.54
65760;BME280;52496;51.082;5.066;2022-12-04T13:44:17;101526.25;;;1.70;97.75
65760;BME280;52496;51.082;5.066;2022-12-04T13:46:56;101523.38;;;1.73;97.70
65760;BME280;52496;51.082;5.066;2022-12-04T13:49:28;101518.09;;;1.73;97.84
65760;BME280;52496;51.082;5.066;2022-12-04T13:52:02;101519.06;;;1.72;98.10
65760;BME280;52496;51.082;5.066;2022-12-04T13:54:35;101524.13;;;1.75;98.27
65760;BME280;52496;51.082;5.066;2022-12-04T13:57:17;101525.81;;;1.76;98.05
65760;BME280;52496;51.082;5.066;2022-12-04T13:59:48;101527.38;;;1.79;97.95
65760;BME280;52496;51.082;5.066;2022-12-04T14:02:26;101529.91;;;1.80;98.03
65760;BME280;52496;51.082;5.066;2022-12-04T14:05:09;101521.41;;;1.77;97.53
65760;BME280;52496;51.082;5.066;2022-12-04T14:07:57;101521.63;;;1.74;97.30
65760;BME280;52496;51.082;5.066;2022-12-04T14:10:32;101523.38;;;1.73;97.56
65760;BME280;52496;51.082;5.066;2022-12-04T14:13:26;101525.19;;;1.73;97.58
65760;BME280;52496;51.082;5.066;2022-12-04T14:16:07;101526.75;;;1.75;97.78
65760;BME280;52496;51.082;5.066;2022-12-04T14:18:39;101516.44;;;1.72;97.20
65760;BME280;52496;51.082;5.066;2022-12-04T14:21:09;101520.75;;;1.73;97.89
65760;BME280;52496;51.082;5.066;2022-12-04T14:23:41;101519.06;;;1.72;97.84
65760;BME280;52496;51.082;5.066;2022-12-04T14:26:25;101520.03;;;1.71;97.60
65760;BME280;52496;51.082;5.066;2022-12-04T14:31:59;101510.63;;;1.67;97.15
65760;BME280;52496;51.082;5.066;2022-12-04T14:34:30;101508.22;;;1.64;97.19
65760;BME280;52496;51.082;5.066;2022-12-04T14:37:02;101510.88;;;1.64;97.62
65760;BME280;52496;51.082;5.066;2022-12-04T14:39:45;101509.94;;;1.65;97.59
65760;BME280;52496;51.082;5.066;2022-12-04T14:42:26;101511.59;;;1.66;97.78
65760;BME280;52496;51.082;5.066;2022-12-04T14:45:02;101519.28;;;1.69;97.64
65760;BME280;52496;51.082;5.066;2022-12-04T14:57:08;101536.28;;;1.65;97.03
65760;BME280;52496;51.082;5.066;2022-12-04T14:59:21;101533.66;;;1.65;97.47
65760;BME280;52496;51.082;5.066;2022-12-04T15:01:53;101534.59;;;1.64;97.57
65760;BME280;52496;51.082;5.066;2022-12-04T15:04:28;101537.00;;;1.67;97.50